Time;durP1;ratioP1;P1;durP2;ratioP2;P2;SDS_P1;SDS_P2;PMS_P1;PMS_P2;Temp;Humidity;BMP_temperature;BMP_pressure;BME280_temperature;BME280_humidity;BME280_pressure;Samples;Min_cycle;Max_cycle;Signal;HPM_P1;HPM_P2
2023/05/03 00:02:11;;;;;;;6.43;2.30;;;;;;;7.62;84.15;102854.06;5094051;28;20347;-83
2023/05/03 00:04:37;;;;;;;7.55;3.13;;;;;;;7.52;85.30;102852.31;5088075;28;20032;-83
2023/05/03 00:07:03;;;;;;;6.80;2.35;;;;;;;7.66;84.53;102857.91;5105843;28;20031;-84
2023/05/03 00:09:28;;;;;;;4.75;2.42;;;;;;;7.41;86.00;102856.44;5095494;28;20036;-84
2023/05/03 00:11:54;;;;;;;2.95;2.20;;;;;;;7.40;85.91;102866.75;5085190;28;20028;-84
2023/05/03 00:14:19;;;;;;;5.53;2.92;;;;;;;7.38;86.54;102857.88;5092737;28;20028;-84
2023/05/03 00:16:45;;;;;;;4.57;2.40;;;;;;;7.38;87.17;102866.25;5105984;28;20481;-84
2023/05/03 00:19:10;;;;;;;3.88;2.50;;;;;;;7.40;87.15;102857.56;5103510;28;20043;-84
2023/05/03 00:21:36;;;;;;;6.78;2.60;;;;;;;7.44;86.92;102861.38;5079362;28;20069;-84
2023/05/03 00:24:01;;;;;;;5.13;2.22;;;;;;;7.42;86.61;102861.72;5090813;28;20477;-84
2023/05/03 00:26:27;;;;;;;6.13;2.83;;;;;;;7.42;86.21;102860.84;5097458;28;20039;-84
2023/05/03 00:28:52;;;;;;;3.55;2.88;;;;;;;7.35;86.68;102861.25;5096939;28;20027;-84
2023/05/03 00:31:18;;;;;;;6.22;2.63;;;;;;;7.46;85.56;102868.31;5093546;28;20028;-84
2023/05/03 00:33:44;;;;;;;6.55;3.20;;;;;;;7.31;87.42;102863.84;5099862;28;20520;-84
2023/05/03 00:36:11;;;;;;;8.13;3.33;;;;;;;7.36;86.54;102862.94;5080038;28;20037;-84
2023/05/03 00:38:38;;;;;;;7.63;2.75;;;;;;;7.26;86.76;102872.28;5076204;28;20582;-84
2023/05/03 00:41:03;;;;;;;5.32;2.22;;;;;;;7.28;86.73;102869.22;5076146;28;20126;-84
2023/05/03 00:43:30;;;;;;;4.70;3.05;;;;;;;7.27;85.79;102861.97;5080008;28;20580;-84
2023/05/03 00:45:55;;;;;;;3.08;2.58;;;;;;;7.16;86.60;102874.44;5073468;28;20024;-85
2023/05/03 00:48:21;;;;;;;8.98;2.92;;;;;;;7.15;86.55;102864.41;5070730;28;20032;-85
2023/05/03 00:50:47;;;;;;;5.43;2.42;;;;;;;7.11;86.60;102867.81;5081948;28;20020;-84
2023/05/03 00:53:13;;;;;;;4.82;2.75;;;;;;;7.19;85.85;102862.69;5070905;28;20398;-84
2023/05/03 00:55:40;;;;;;;3.05;2.58;;;;;;;7.22;85.73;102865.69;5079969;28;20020;-84
2023/05/03 00:58:05;;;;;;;3.88;2.50;;;;;;;7.18;85.63;102867.44;5074605;28;20114;-84
2023/05/03 01:00:33;;;;;;;4.28;2.53;;;;;;;7.12;85.54;102857.50;5071533;28;20123;-85
2023/05/03 01:02:58;;;;;;;4.60;3.28;;;;;;;7.02;85.78;102844.59;5079226;28;20497;-84
2023/05/03 01:05:32;;;;;;;3.67;3.10;;;;;;;7.12;86.14;102861.13;5070913;28;20103;-84
2023/05/03 01:08:10;;;;;;;4.97;2.30;;;;;;;7.10;85.24;102857.00;5080782;28;20020;-84
2023/05/03 01:10:54;;;;;;;6.63;2.72;;;;;;;7.09;85.64;102852.56;5076779;28;20824;-84
2023/05/03 01:13:49;;;;;;;2.83;2.35;;;;;;;6.98;85.92;102854.72;5080612;28;20028;-84
2023/05/03 01:16:25;;;;;;;4.60;2.70;;;;;;;7.01;85.72;102853.25;5067979;28;20028;-84
2023/05/03 01:18:54;;;;;;;5.35;3.28;;;;;;;6.85;86.10;102852.69;5070780;28;20500;-84
2023/05/03 01:21:21;;;;;;;6.80;2.97;;;;;;;6.82;85.93;102847.75;5068711;28;20078;-84
2023/05/03 01:24:03;;;;;;;6.45;2.80;;;;;;;6.91;86.05;102843.13;5078516;28;20514;-84
2023/05/03 01:26:28;;;;;;;3.97;2.80;;;;;;;6.99;85.56;102850.78;5088001;28;20064;-84
2023/05/03 01:28:54;;;;;;;3.60;2.65;;;;;;;6.83;85.89;102854.94;5079444;28;20070;-85
2023/05/03 01:31:42;;;;;;;5.13;2.92;;;;;;;6.94;85.37;102850.88;5070977;28;20021;-84
2023/05/03 01:34:11;;;;;;;5.38;3.83;;;;;;;6.85;85.13;102853.53;5081799;28;20035;-84
2023/05/03 01:36:39;;;;;;;5.72;2.70;;;;;;;6.80;86.06;102858.34;5080791;28;20051;-84
2023/05/03 01:39:11;;;;;;;4.53;2.92;;;;;;;6.69;87.23;102863.25;5084765;28;20058;-85
2023/05/03 01:41:40;;;;;;;5.45;2.83;;;;;;;6.68;86.53;102859.66;5085210;28;20554;-84
2023/05/03 01:44:07;;;;;;;6.25;3.20;;;;;;;6.64;86.85;102853.03;5082489;28;20028;-85
2023/05/03 01:46:33;;;;;;;2.92;2.50;;;;;;;6.72;86.05;102857.91;5085070;28;20063;-85
2023/05/03 01:48:58;;;;;;;6.55;3.40;;;;;;;6.65;86.34;102857.47;5073639;28;20059;-85
2023/05/03 01:51:24;;;;;;;5.90;3.10;;;;;;;6.64;86.52;102860.53;5079488;28;20050;-85
2023/05/03 01:53:49;;;;;;;6.22;3.10;;;;;;;6.75;85.74;102867.63;5085048;28;20028;-85
2023/05/03 01:56:14;;;;;;;5.38;2.67;;;;;;;6.70;85.81;102862.13;5069352;28;20038;-85
2023/05/03 01:58:40;;;;;;;5.28;2.92;;;;;;;6.58;86.87;102861.75;5075502;28;20112;-85
2023/05/03 02:01:06;;;;;;;3.33;2.70;;;;;;;6.58;86.31;102854.25;5083407;28;20171;-85
2023/05/03 02:03:32;;;;;;;3.40;3.10;;;;;;;6.59;86.18;102861.44;5080937;28;20022;-85
2023/05/03 02:05:57;;;;;;;4.18;2.80;;;;;;;6.54;86.19;102858.75;5086018;28;20114;-85
2023/05/03 02:08:23;;;;;;;3.28;2.67;;;;;;;6.42;86.38;102850.03;5083853;28;20028;-85
2023/05/03 02:10:48;;;;;;;4.38;3.13;;;;;;;6.51;86.04;102839.88;5067782;28;20078;-85
2023/05/03 02:13:15;;;;;;;5.75;3.17;;;;;;;6.48;86.23;102837.72;5069684;28;20028;-85
2023/05/03 02:15:40;;;;;;;5.13;2.78;;;;;;;6.42;85.86;102844.47;5075040;28;20027;-85
2023/05/03 02:18:07;;;;;;;5.70;2.55;;;;;;;6.37;86.56;102839.81;5084908;28;20032;-85
2023/05/03 02:20:36;;;;;;;4.65;2.88;;;;;;;6.44;87.14;102831.09;5083080;28;20027;-85
2023/05/03 02:23:02;;;;;;;5.68;3.10;;;;;;;6.46;86.44;102838.00;5069783;28;20255;-85
2023/05/03 02:25:28;;;;;;;4.28;2.70;;;;;;;6.34;87.36;102842.38;5073631;28;20512;-85
2023/05/03 02:27:54;;;;;;;4.68;2.67;;;;;;;6.45;87.97;102829.94;5080848;28;20064;-85
2023/05/03 02:30:19;;;;;;;4.05;2.35;;;;;;;6.47;87.26;102836.88;5067662;28;20056;-85
2023/05/03 02:32:45;;;;;;;5.72;2.72;;;;;;;6.35;87.42;102835.69;5078095;28;20021;-85
2023/05/03 02:35:10;;;;;;;7.13;2.85;;;;;;;6.40;87.38;102835.59;5079827;28;20070;-85
2023/05/03 02:37:36;;;;;;;3.92;2.83;;;;;;;6.40;87.25;102835.59;5074999;28;20040;-86
2023/05/03 02:40:01;;;;;;;4.78;2.85;;;;;;;6.37;87.36;102827.88;5071454;28;20025;-85
2023/05/03 02:42:26;;;;;;;4.28;2.72;;;;;;;6.35;86.93;102832.91;5071627;28;20074;-85
2023/05/03 02:44:52;;;;;;;4.22;3.00;;;;;;;6.27;87.28;102824.09;5086487;28;20036;-85
2023/05/03 02:47:17;;;;;;;7.72;3.33;;;;;;;6.28;87.19;102817.44;5088425;28;20025;-85
2023/05/03 02:49:42;;;;;;;8.00;2.42;;;;;;;6.29;86.95;102818.25;5088154;28;20047;-86
2023/05/03 02:52:08;;;;;;;6.25;2.92;;;;;;;6.28;87.67;102813.78;5071390;28;20036;-86
2023/05/03 02:54:33;;;;;;;5.13;2.22;;;;;;;6.26;87.19;102825.25;5070947;28;20103;-85
2023/05/03 02:56:59;;;;;;;6.45;3.17;;;;;;;6.08;87.69;102806.59;5074340;28;20025;-85
2023/05/03 02:59:24;;;;;;;5.40;3.30;;;;;;;6.24;87.11;102821.94;5081216;28;20071;-85
2023/05/03 03:01:49;;;;;;;4.65;3.28;;;;;;;6.15;87.72;102807.03;5091051;28;20024;-85
2023/05/03 03:04:15;;;;;;;8.55;3.03;;;;;;;6.02;88.51;102807.78;5077649;28;20066;-85
2023/05/03 03:06:40;;;;;;;5.30;2.72;;;;;;;6.15;87.55;102806.22;5091090;28;20023;-85
2023/05/03 03:09:06;;;;;;;6.97;3.55;;;;;;;6.15;87.74;102801.47;5079872;28;20028;-86
2023/05/03 03:11:32;;;;;;;4.82;3.70;;;;;;;6.22;87.10;102801.09;5076021;28;20491;-85
2023/05/03 03:13:57;;;;;;;5.88;2.50;;;;;;;6.20;86.69;102798.63;5079156;28;20028;-86
2023/05/03 03:16:22;;;;;;;4.25;2.67;;;;;;;6.16;87.25;102792.03;5082914;28;20016;-85
2023/05/03 03:18:48;;;;;;;3.67;2.85;;;;;;;6.25;86.79;102793.00;5084283;28;20428;-85
2023/05/03 03:21:13;;;;;;;5.80;3.30;;;;;;;6.05;87.08;102785.78;5076138;28;20021;-86
2023/05/03 03:23:38;;;;;;;4.97;3.17;;;;;;;6.09;87.26;102791.56;5079064;28;20035;-85
2023/05/03 03:26:04;;;;;;;4.53;3.22;;;;;;;6.01;88.02;102795.00;5077706;28;20021;-86
2023/05/03 03:28:29;;;;;;;5.88;3.50;;;;;;;6.07;87.09;102800.22;5074251;28;20024;-86
2023/05/03 03:30:54;;;;;;;4.93;3.13;;;;;;;5.99;86.93;102802.84;5081152;28;20043;-85
2023/05/03 03:33:20;;;;;;;4.13;3.33;;;;;;;6.02;87.18;102805.00;5071976;28;20466;-86
2023/05/03 03:35:52;;;;;;;6.93;3.20;;;;;;;5.97;87.52;102805.09;5087312;28;20040;-85
2023/05/03 03:38:17;;;;;;;3.50;3.13;;;;;;;5.98;87.86;102809.53;5074817;28;20537;-85
2023/05/03 03:40:43;;;;;;;3.55;3.17;;;;;;;5.97;88.79;102816.22;5092337;28;20173;-85
2023/05/03 03:43:09;;;;;;;6.07;3.08;;;;;;;5.83;88.91;102822.47;5076174;28;20465;-85
2023/05/03 03:45:34;;;;;;;4.13;2.65;;;;;;;5.83;89.05;102816.91;5089753;28;20119;-86
2023/05/03 03:47:59;;;;;;;3.55;3.13;;;;;;;5.88;89.37;102821.56;5073890;28;20111;-86
2023/05/03 03:50:25;;;;;;;3.75;3.25;;;;;;;5.81;89.36;102813.59;5091548;28;20016;-85
2023/05/03 03:52:50;;;;;;;4.50;3.30;;;;;;;5.84;88.72;102818.56;5093244;28;20480;-86
2023/05/03 03:55:16;;;;;;;3.30;3.00;;;;;;;5.80;89.76;102816.69;5085965;28;20035;-86
2023/05/03 03:57:41;;;;;;;5.35;2.65;;;;;;;5.87;89.04;102826.31;5084217;28;20024;-86
2023/05/03 04:00:10;;;;;;;3.85;3.13;;;;;;;5.94;88.50;102822.31;5084289;28;20389;-86
2023/05/03 04:02:36;;;;;;;6.70;3.78;;;;;;;5.80;88.09;102814.72;5106024;28;20504;-85
2023/05/03 04:05:02;;;;;;;5.30;4.00;;;;;;;5.83;87.63;102828.03;5080759;28;20058;-85
2023/05/03 04:07:28;;;;;;;3.63;2.53;;;;;;;5.84;87.91;102835.25;5099321;28;20020;-86
2023/05/03 04:09:55;;;;;;;6.00;3.03;;;;;;;5.80;87.74;102834.19;5091627;28;20408;-86
2023/05/03 04:12:20;;;;;;;7.88;3.25;;;;;;;5.85;87.88;102842.44;5097266;28;20420;-86
2023/05/03 04:14:46;;;;;;;5.43;3.03;;;;;;;5.84;87.06;102843.59;5094548;28;20715;-85
2023/05/03 04:17:11;;;;;;;10.73;3.50;;;;;;;5.75;88.35;102853.69;5094194;28;20051;-86
2023/05/03 04:19:37;;;;;;;3.53;2.95;;;;;;;5.71;88.84;102844.28;5091688;28;20225;-85
2023/05/03 04:22:03;;;;;;;4.93;3.40;;;;;;;5.79;88.12;102851.97;5091883;28;20031;-86
2023/05/03 04:24:29;;;;;;;6.20;3.38;;;;;;;5.76;88.67;102840.63;5085437;28;20031;-86
2023/05/03 04:26:55;;;;;;;5.32;3.22;;;;;;;5.70;89.44;102851.81;5095339;28;20023;-85
2023/05/03 04:29:21;;;;;;;4.68;3.42;;;;;;;5.67;89.14;102852.41;5092312;28;20055;-86
2023/05/03 04:31:46;;;;;;;3.35;3.05;;;;;;;5.83;88.51;102858.59;5107861;28;20036;-86
2023/05/03 04:34:14;;;;;;;4.07;2.97;;;;;;;5.79;88.32;102854.75;5089371;28;20538;-86
2023/05/03 04:36:45;;;;;;;7.15;3.42;;;;;;;5.75;88.66;102842.56;5111362;28;20497;-86
2023/05/03 04:39:11;;;;;;;7.57;3.45;;;;;;;5.67;89.09;102852.41;5093212;28;20084;-86
2023/05/03 04:41:37;;;;;;;5.28;2.95;;;;;;;5.70;88.69;102834.31;5086666;28;20562;-86
2023/05/03 04:44:04;;;;;;;9.85;3.35;;;;;;;5.73;89.49;102844.81;5082743;28;20151;-86
2023/05/03 04:46:30;;;;;;;5.95;3.30;;;;;;;5.81;88.48;102857.25;5100852;27;20023;-86
2023/05/03 04:48:56;;;;;;;5.53;3.45;;;;;;;5.78;89.39;102864.22;5106950;28;20370;-86
2023/05/03 04:51:22;;;;;;;6.57;3.47;;;;;;;5.74;89.34;102867.91;5091046;28;20063;-86
2023/05/03 04:53:48;;;;;;;3.42;2.72;;;;;;;5.79;89.55;102873.38;5110930;28;20024;-86
2023/05/03 04:56:13;;;;;;;4.72;2.97;;;;;;;5.73;88.15;102850.38;5105576;28;20068;-86
2023/05/03 04:58:39;;;;;;;3.60;3.20;;;;;;;5.77;89.27;102878.41;5110610;28;20380;-86
2023/05/03 05:01:05;;;;;;;4.13;2.83;;;;;;;5.77;89.75;102875.63;5089486;28;20057;-86
2023/05/03 05:03:31;;;;;;;6.72;3.83;;;;;;;5.73;89.68;102877.34;5085252;28;20031;-86
2023/05/03 05:05:57;;;;;;;6.68;3.28;;;;;;;5.69;91.84;102889.06;5108014;28;20027;-86
2023/05/03 05:08:22;;;;;;;5.63;3.15;;;;;;;5.62;90.94;102882.19;5091577;28;20016;-86
2023/05/03 05:10:48;;;;;;;5.40;3.60;;;;;;;5.78;91.43;102886.44;5083247;28;20024;-86
2023/05/03 05:13:13;;;;;;;4.47;3.45;;;;;;;5.70;93.07;102889.88;5091016;28;20391;-86
2023/05/03 05:15:39;;;;;;;6.70;3.42;;;;;;;5.77;93.21;102895.91;5085048;28;20392;-86
2023/05/03 05:18:04;;;;;;;7.53;3.30;;;;;;;5.74;93.27;102890.94;5089611;28;20023;-86
2023/05/03 05:20:30;;;;;;;3.80;3.38;;;;;;;5.74;92.29;102888.16;5088225;28;20022;-85
2023/05/03 05:22:55;;;;;;;9.07;3.70;;;;;;;5.84;92.30;102885.28;5085018;28;20032;-86
2023/05/03 05:25:20;;;;;;;5.95;3.08;;;;;;;5.90;92.45;102895.22;5088379;28;20031;-85
2023/05/03 05:27:46;;;;;;;6.63;3.53;;;;;;;5.84;92.54;102887.19;5108832;27;20035;-85
2023/05/03 05:30:11;;;;;;;3.75;3.33;;;;;;;5.96;91.78;102895.97;5109369;28;20510;-85
2023/05/03 05:32:37;;;;;;;5.30;3.75;;;;;;;6.02;91.33;102896.75;5091709;28;20030;-85
2023/05/03 05:35:02;;;;;;;4.45;3.38;;;;;;;5.96;92.00;102895.16;5109652;28;20038;-85
2023/05/03 05:37:28;;;;;;;6.72;4.35;;;;;;;5.94;92.04;102889.03;5109972;28;20039;-85
2023/05/03 05:39:54;;;;;;;5.43;3.65;;;;;;;5.86;92.70;102888.59;5088432;28;20036;-85
2023/05/03 05:42:19;;;;;;;6.95;4.07;;;;;;;6.02;91.54;102905.09;5083559;28;20027;-84
2023/05/03 05:44:45;;;;;;;8.38;3.65;;;;;;;5.99;92.97;102900.16;5090610;28;20108;-84
2023/05/03 05:47:10;;;;;;;5.00;3.08;;;;;;;6.08;91.52;102909.47;5090486;28;20046;-84
2023/05/03 05:49:36;;;;;;;11.90;3.33;;;;;;;6.14;91.62;102910.25;5110487;28;20032;-84
2023/05/03 05:52:01;;;;;;;5.13;3.67;;;;;;;6.21;90.33;102907.91;5110380;28;20088;-84
2023/05/03 05:54:27;;;;;;;3.72;3.03;;;;;;;6.24;90.46;102916.50;5085491;28;20114;-85
2023/05/03 05:56:52;;;;;;;5.78;3.40;;;;;;;6.18;91.53;102905.75;5091177;28;20051;-84
2023/05/03 05:59:18;;;;;;;6.97;3.75;;;;;;;6.10;93.81;102915.56;5089432;28;20022;-84
2023/05/03 06:01:45;;;;;;;8.38;3.63;;;;;;;6.19;91.62;102919.31;5105923;28;20480;-86
2023/05/03 06:04:11;;;;;;;5.40;3.53;;;;;;;6.25;91.43;102912.56;5090042;28;20023;-86
2023/05/03 06:06:36;;;;;;;6.03;3.10;;;;;;;6.30;91.00;102920.00;5091560;28;20481;-86
2023/05/03 06:09:02;;;;;;;5.07;3.53;;;;;;;6.34;91.26;102920.25;5091202;28;20037;-86
2023/05/03 06:11:28;;;;;;;13.30;3.40;;;;;;;6.10;94.49;102905.25;5087018;28;20042;-85
2023/05/03 06:13:55;;;;;;;5.15;3.00;;;;;;;6.20;92.51;102918.22;5106997;28;20027;-85
2023/05/03 06:16:21;;;;;;;4.78;3.47;;;;;;;6.18;91.81;102911.31;5092389;28;20024;-86
2023/05/03 06:18:46;;;;;;;6.20;3.53;;;;;;;6.14;94.73;102919.41;5083822;28;20042;-85
2023/05/03 06:21:11;;;;;;;8.65;3.40;;;;;;;6.28;93.54;102911.13;5089031;28;20011;-85
2023/05/03 06:23:38;;;;;;;6.07;3.45;;;;;;;6.23;95.35;102900.91;5090489;28;20053;-85
2023/05/03 06:26:04;;;;;;;5.15;2.97;;;;;;;6.16;97.03;102914.38;5091654;28;20023;-85
2023/05/03 06:28:29;;;;;;;5.07;3.30;;;;;;;6.34;90.62;102911.91;5110663;28;20016;-85
2023/05/03 06:30:55;;;;;;;4.53;2.72;;;;;;;6.19;98.02;102919.31;5106178;28;20041;-85
2023/05/03 06:33:20;;;;;;;6.18;3.45;;;;;;;6.20;96.33;102901.53;5088178;28;20031;-85
2023/05/03 06:35:48;;;;;;;8.60;3.00;;;;;;;6.19;100.00;102907.38;5109484;28;20047;-85
2023/05/03 06:38:14;;;;;;;3.30;2.72;;;;;;;6.25;100.00;102907.00;5106332;28;20024;-85
2023/05/03 06:40:40;;;;;;;4.40;2.85;;;;;;;6.37;98.44;102908.53;5090293;28;20092;-85
2023/05/03 06:43:06;;;;;;;4.15;2.80;;;;;;;6.44;98.85;102908.97;5109925;28;20473;-85
2023/05/03 06:45:31;;;;;;;5.85;2.53;;;;;;;6.47;96.87;102895.31;5088509;28;20028;-85
2023/05/03 06:47:57;;;;;;;5.65;2.97;;;;;;;6.50;98.19;102891.09;5091214;28;20024;-84
2023/05/03 06:50:23;;;;;;;7.35;3.60;;;;;;;6.45;96.31;102893.94;5105134;28;21882;-84
2023/05/03 06:52:49;;;;;;;3.22;2.58;;;;;;;6.58;94.95;102904.34;5094043;28;20072;-85
2023/05/03 06:55:15;;;;;;;6.45;3.42;;;;;;;6.82;96.27;102907.00;5084560;28;20043;-85
2023/05/03 06:57:41;;;;;;;5.82;2.53;;;;;;;6.90;92.97;102911.91;5071251;28;20020;-85
2023/05/03 07:00:07;;;;;;;3.03;2.70;;;;;;;6.79;91.22;102912.34;5089818;28;20385;-84
2023/05/03 07:02:33;;;;;;;6.40;2.92;;;;;;;6.77;91.03;102906.25;5082569;28;20165;-85
2023/05/03 07:04:58;;;;;;;5.35;2.75;;;;;;;6.72;93.93;102909.94;5095073;28;20099;-85
2023/05/03 07:07:23;;;;;;;6.50;3.38;;;;;;;6.83;92.68;102907.84;5082829;28;20048;-85
2023/05/03 07:09:49;;;;;;;4.82;3.22;;;;;;;7.06;91.69;102909.69;5096899;28;20039;-84
2023/05/03 07:12:15;;;;;;;7.22;3.17;;;;;;;7.16;92.18;102907.88;5089035;28;20016;-84
2023/05/03 07:14:40;;;;;;;3.78;3.20;;;;;;;7.19;90.94;102896.09;5086926;28;20388;-85
2023/05/03 07:17:06;;;;;;;11.15;3.67;;;;;;;7.41;86.26;102898.22;5090230;28;20115;-85
2023/05/03 07:19:32;;;;;;;6.85;2.78;;;;;;;7.52;86.52;102910.81;5088434;28;20118;-85
2023/05/03 07:21:57;;;;;;;6.05;2.47;;;;;;;7.60;86.25;102903.72;5076453;28;20024;-84
2023/05/03 07:24:25;;;;;;;3.50;2.17;;;;;;;7.82;82.00;102903.84;5091197;28;20453;-85
2023/05/03 07:26:52;;;;;;;3.30;2.50;;;;;;;7.65;83.85;102901.69;5097647;27;20122;-85
2023/05/03 07:29:17;;;;;;;3.00;2.40;;;;;;;7.76;83.62;102887.50;5088726;28;20036;-84
2023/05/03 07:31:43;;;;;;;4.78;2.90;;;;;;;7.49;86.71;102889.97;5092347;28;20032;-85
2023/05/03 07:34:09;;;;;;;4.25;2.20;;;;;;;7.76;83.89;102885.56;5113230;28;20030;-84
2023/05/03 07:36:34;;;;;;;4.28;1.85;;;;;;;7.84;80.70;102882.06;5082508;28;20501;-84
2023/05/03 07:39:00;;;;;;;2.38;2.17;;;;;;;7.68;82.94;102875.97;5091741;28;20027;-84
2023/05/03 07:41:25;;;;;;;4.30;2.33;;;;;;;7.67;83.26;102874.31;5112777;28;20023;-84
2023/05/03 07:43:51;;;;;;;4.25;2.30;;;;;;;8.02;83.04;102874.69;5112464;28;20062;-84
2023/05/03 07:46:16;;;;;;;3.75;1.98;;;;;;;8.32;80.03;102875.16;5110984;28;21000;-85
2023/05/03 07:48:41;;;;;;;3.08;1.92;;;;;;;8.31;77.87;102871.56;5093271;28;20023;-84
2023/05/03 07:51:07;;;;;;;2.45;1.98;;;;;;;8.56;78.88;102872.16;5086106;28;20434;-84
2023/05/03 07:53:34;;;;;;;2.03;1.80;;;;;;;8.64;75.73;102878.91;5082314;28;20028;-84
2023/05/03 07:56:00;;;;;;;4.88;2.03;;;;;;;8.63;75.56;102877.28;5104907;28;20114;-84
2023/05/03 07:58:25;;;;;;;6.68;2.22;;;;;;;8.63;75.87;102883.69;5100808;28;20095;-84
2023/05/03 08:00:51;;;;;;;4.80;2.17;;;;;;;8.85;75.00;102868.91;5099349;28;20019;-84
2023/05/03 08:03:17;;;;;;;3.30;2.08;;;;;;;8.92;74.32;102872.09;5094029;28;20020;-85
2023/05/03 08:05:42;;;;;;;6.50;2.40;;;;;;;8.62;75.24;102870.88;5106607;28;20084;-84
2023/05/03 08:08:08;;;;;;;3.70;1.98;;;;;;;8.59;75.56;102860.34;5109307;28;20519;-84
2023/05/03 08:10:36;;;;;;;5.18;2.83;;;;;;;9.01;75.29;102865.75;5108157;28;20061;-84
2023/05/03 08:13:04;;;;;;;3.17;2.60;;;;;;;9.16;73.79;102868.94;5111597;28;20031;-84
2023/05/03 08:15:30;;;;;;;4.53;2.17;;;;;;;9.35;74.07;102867.91;5092929;28;20020;-85
2023/05/03 08:17:55;;;;;;;5.95;2.47;;;;;;;8.99;73.57;102863.25;5108660;28;20019;-84
2023/05/03 08:20:20;;;;;;;3.50;2.42;;;;;;;8.91;74.24;102872.41;5088546;28;20028;-85
2023/05/03 08:22:46;;;;;;;4.60;3.15;;;;;;;9.28;73.59;102859.16;5105900;28;20032;-84
2023/05/03 08:25:11;;;;;;;2.33;2.20;;;;;;;9.16;76.11;102870.91;5087499;28;20027;-84
2023/05/03 08:27:37;;;;;;;5.38;3.10;;;;;;;9.30;74.03;102859.66;5085790;28;20028;-84
2023/05/03 08:30:03;;;;;;;6.25;3.03;;;;;;;9.43;73.70;102864.31;5092696;28;20035;-85
2023/05/03 08:32:29;;;;;;;2.88;2.15;;;;;;;9.32;75.97;102865.75;5093393;28;20542;-84
2023/05/03 08:34:55;;;;;;;7.05;2.88;;;;;;;9.12;74.72;102853.97;5104331;28;20077;-85
2023/05/03 08:37:21;;;;;;;3.15;2.40;;;;;;;9.21;75.37;102859.59;5102979;28;20032;-85
2023/05/03 08:39:47;;;;;;;6.45;2.75;;;;;;;9.15;74.96;102856.13;5092412;28;20404;-84
2023/05/03 08:42:12;;;;;;;6.28;3.00;;;;;;;9.58;73.08;102863.06;5111604;28;20430;-85
2023/05/03 08:44:44;;;;;;;7.45;3.38;;;;;;;9.34;73.23;102864.28;5111747;28;20034;-85
2023/05/03 08:47:12;;;;;;;4.40;2.83;;;;;;;9.34;73.82;102858.69;5110451;28;20020;-84
2023/05/03 08:49:38;;;;;;;6.90;2.40;;;;;;;9.32;74.22;102866.59;5085661;28;20044;-84
2023/05/03 08:52:05;;;;;;;11.27;3.05;;;;;;;9.21;75.33;102875.53;5086289;28;20197;-84
2023/05/03 08:54:30;;;;;;;2.85;2.55;;;;;;;8.94;74.92;102872.59;5108752;28;20080;-85
2023/05/03 08:56:56;;;;;;;3.22;2.45;;;;;;;8.80;77.95;102859.84;5084289;28;20442;-85
2023/05/03 08:59:21;;;;;;;6.72;3.45;;;;;;;9.00;77.02;102859.31;5093207;28;20534;-84
2023/05/03 09:01:47;;;;;;;9.32;2.78;;;;;;;9.38;74.29;102858.03;5092196;28;20179;-85
2023/05/03 09:04:12;;;;;;;4.53;2.70;;;;;;;9.65;76.72;102860.63;5109084;28;20031;-85
2023/05/03 09:06:38;;;;;;;5.20;2.58;;;;;;;9.80;74.05;102858.53;5092387;28;20415;-85
2023/05/03 09:09:07;;;;;;;3.28;2.70;;;;;;;9.64;74.17;102855.38;5089804;28;20077;-85
2023/05/03 09:11:34;;;;;;;5.18;3.13;;;;;;;10.46;69.60;102862.16;5092157;28;20110;-85
2023/05/03 09:14:12;;;;;;;4.00;2.92;;;;;;;10.87;68.15;102879.59;5091718;28;20038;-85
2023/05/03 09:16:39;;;;;;;5.20;3.65;;;;;;;10.86;67.20;102872.38;5100408;28;20020;-86
2023/05/03 09:19:08;;;;;;;6.97;3.25;;;;;;;10.62;70.73;102861.66;5107649;28;20084;-85
2023/05/03 09:21:34;;;;;;;3.50;3.20;;;;;;;10.86;69.12;102872.38;5088972;28;20039;-85
2023/05/03 09:24:02;;;;;;;7.10;3.35;;;;;;;10.23;70.81;102872.66;5086910;28;20020;-86
2023/05/03 09:26:28;;;;;;;5.55;2.97;;;;;;;10.22;73.53;102881.34;5096990;27;20571;-85
2023/05/03 09:28:55;;;;;;;4.95;3.42;;;;;;;9.66;70.24;102864.28;5093287;28;20031;-85
2023/05/03 09:31:23;;;;;;;4.40;2.95;;;;;;;9.89;75.06;102876.19;5108259;28;20536;-85
2023/05/03 09:33:49;;;;;;;3.20;2.90;;;;;;;10.39;72.93;102875.81;5092442;28;20039;-85
2023/05/03 09:36:14;;;;;;;4.97;3.20;;;;;;;10.48;69.07;102873.03;5110003;28;20043;-85
2023/05/03 09:38:40;;;;;;;5.53;2.75;;;;;;;11.25;66.46;102890.91;5110905;28;20028;-86
2023/05/03 09:41:05;;;;;;;3.25;2.92;;;;;;;10.72;66.61;102884.56;5110254;28;20111;-86
2023/05/03 09:43:31;;;;;;;4.35;3.17;;;;;;;10.19;69.02;102888.44;5091835;28;20023;-86
2023/05/03 09:46:11;;;;;;;5.90;3.08;;;;;;;10.06;71.00;102872.63;5090881;28;20030;-86
2023/05/03 09:48:37;;;;;;;5.45;4.05;;;;;;;10.50;68.74;102865.94;5105033;28;20510;-86
2023/05/03 09:51:06;;;;;;;3.35;3.03;;;;;;;10.94;74.21;102865.91;5092250;28;20039;-86
2023/05/03 09:53:33;;;;;;;5.88;3.08;;;;;;;11.37;64.04;102865.00;5091975;28;20019;-86
2023/05/03 09:56:02;;;;;;;5.18;3.47;;;;;;;11.42;65.71;102878.81;5105220;28;20031;-86
2023/05/03 09:58:29;;;;;;;4.10;3.67;;;;;;;11.63;68.30;102878.09;5109895;28;20020;-86
2023/05/03 10:00:56;;;;;;;4.25;3.28;;;;;;;11.85;64.01;102889.06;5090938;28;20024;-86
2023/05/03 10:03:27;;;;;;;6.68;3.20;;;;;;;11.24;63.64;102871.63;5108868;28;20035;-86
2023/05/03 10:05:53;;;;;;;8.90;3.70;;;;;;;11.38;65.27;102873.09;5091734;28;20081;-86
2023/05/03 10:08:25;;;;;;;5.18;3.30;;;;;;;10.80;71.40;102874.50;5109671;28;20015;-86
2023/05/03 10:10:52;;;;;;;9.48;3.60;;;;;;;11.54;65.04;102864.09;5090444;28;20643;-86
2023/05/03 10:13:20;;;;;;;3.53;3.17;;;;;;;11.73;63.22;102878.53;5110103;28;20031;-86
2023/05/03 10:15:55;;;;;;;4.82;3.85;;;;;;;11.55;69.91;102868.53;5093847;28;20606;-86
2023/05/03 10:18:26;;;;;;;5.10;3.08;;;;;;;11.58;63.06;102860.28;5076317;28;20073;-86
2023/05/03 10:20:56;;;;;;;4.32;3.17;;;;;;;11.39;62.92;102862.69;5083230;28;20435;-86
2023/05/03 10:23:22;;;;;;;8.65;3.38;;;;;;;12.07;61.97;102859.06;5093257;28;20481;-86
2023/05/03 10:26:12;;;;;;;3.90;3.45;;;;;;;12.20;61.83;102860.78;5085261;28;20027;-86
2023/05/03 10:28:38;;;;;;;6.70;3.35;;;;;;;11.71;62.92;102840.75;5102279;28;20042;-86
2023/05/03 10:31:03;;;;;;;4.65;3.17;;;;;;;11.97;59.89;102861.13;5080984;28;20489;-86
2023/05/03 10:33:31;;;;;;;3.47;2.97;;;;;;;12.47;58.68;102847.41;5097865;28;20031;-86
2023/05/03 10:35:58;;;;;;;6.63;3.90;;;;;;;12.93;59.27;102837.88;5098300;28;20036;-86
2023/05/03 10:38:28;;;;;;;4.25;3.83;;;;;;;13.12;61.06;102844.97;5079816;28;20020;-86
2023/05/03 10:40:55;;;;;;;5.13;4.22;;;;;;;13.14;56.87;102845.44;5108127;28;20483;-87
2023/05/03 10:43:30;;;;;;;5.20;3.60;;;;;;;13.29;56.49;102841.97;5091511;28;20024;-87
2023/05/03 10:46:00;;;;;;;5.32;4.32;;;;;;;13.30;58.18;102838.00;5100339;28;20032;-87
2023/05/03 10:48:27;;;;;;;5.38;3.75;;;;;;;13.15;60.41;102841.44;5089448;28;20043;-87
2023/05/03 10:50:53;;;;;;;4.53;3.40;;;;;;;13.54;57.50;102851.25;5108535;28;20497;-86
2023/05/03 10:53:37;;;;;;;6.00;3.95;;;;;;;13.49;56.12;102851.50;5105946;28;20106;-87
2023/05/03 10:56:06;;;;;;;4.75;3.30;;;;;;;13.23;55.48;102832.91;5100585;28;20493;-87
2023/05/03 10:58:35;;;;;;;5.82;4.18;;;;;;;13.19;57.53;102840.38;5083012;28;20026;-87
2023/05/03 11:01:03;;;;;;;8.63;3.35;;;;;;;12.72;60.71;102829.47;5086417;28;20020;-87
2023/05/03 11:03:48;;;;;;;4.93;4.20;;;;;;;13.49;57.50;102839.41;5091522;28;20622;-87
2023/05/03 11:06:35;;;;;;;6.80;4.13;;;;;;;12.80;59.35;102828.56;5094922;28;20575;-87
2023/05/03 11:09:03;;;;;;;5.75;3.60;;;;;;;13.34;57.21;102832.47;5106287;28;20489;-87
2023/05/03 11:11:28;;;;;;;5.35;3.85;;;;;;;13.48;56.70;102823.72;5088592;28;20489;-87
2023/05/03 11:13:54;;;;;;;5.80;4.00;;;;;;;13.08;59.15;102830.75;5110642;28;20023;-87
2023/05/03 11:16:19;;;;;;;7.55;3.78;;;;;;;13.69;61.19;102826.41;5098428;28;20085;-87
2023/05/03 11:18:47;;;;;;;4.07;3.67;;;;;;;13.56;54.75;102832.03;5094718;28;20016;-87
2023/05/03 11:21:13;;;;;;;4.43;3.38;;;;;;;13.77;53.74;102822.66;5111582;28;20031;-87
2023/05/03 11:23:38;;;;;;;5.22;3.50;;;;;;;13.45;54.61;102816.81;5088871;28;20081;-87
2023/05/03 11:26:10;;;;;;;4.93;4.43;;;;;;;13.97;55.44;102820.88;5111500;28;20027;-88
2023/05/03 11:28:41;;;;;;;4.45;3.80;;;;;;;13.62;58.68;102810.13;5085772;28;20031;-88
2023/05/03 11:31:07;;;;;;;4.43;4.03;;;;;;;13.55;56.94;102810.69;5096511;28;20389;-87